createdAt,value
2023-04-16T00:03:01.301Z,100.00
2023-04-16T00:06:05.297Z,100.00
2023-04-16T00:09:08.674Z,100.00
2023-04-16T00:12:12.445Z,100.00
2023-04-16T00:15:15.997Z,100.00
2023-04-16T00:18:21.596Z,100.00
2023-04-16T00:21:25.024Z,100.00
2023-04-16T00:24:28.755Z,100.00
2023-04-16T00:27:31.969Z,100.00
2023-04-16T00:30:35.520Z,100.00
2023-04-16T00:33:38.996Z,100.00
2023-04-16T00:36:42.411Z,100.00
2023-04-16T00:39:46.716Z,100.00
2023-04-16T00:42:50.438Z,100.00
2023-04-16T00:45:54.798Z,100.00
2023-04-16T00:49:01.396Z,100.00
2023-04-16T00:52:05.741Z,100.00
2023-04-16T00:55:14.255Z,100.00
2023-04-16T00:58:18.363Z,100.00
2023-04-16T01:01:22.186Z,100.00
2023-04-16T01:04:26.352Z,100.00
2023-04-16T01:07:30.329Z,100.00
2023-04-16T01:10:33.527Z,100.00
2023-04-16T01:13:40.129Z,100.00
2023-04-16T01:16:43.356Z,100.00
2023-04-16T01:19:47.331Z,100.00
2023-04-16T01:22:50.490Z,100.00
2023-04-16T01:25:53.967Z,100.00
2023-04-16T01:28:58.746Z,100.00
2023-04-16T01:32:03.664Z,100.00
2023-04-16T01:35:07.382Z,100.00
2023-04-16T01:38:11.419Z,100.00
2023-04-16T01:41:14.518Z,100.00
2023-04-16T01:44:18.087Z,100.00
2023-04-16T01:47:22.109Z,100.00
2023-04-16T01:50:26.113Z,100.00
2023-04-16T01:53:30.547Z,100.00
2023-04-16T01:56:34.297Z,100.00
2023-04-16T01:59:37.769Z,100.00
2023-04-16T02:02:41.853Z,100.00
2023-04-16T02:05:45.466Z,100.00
2023-04-16T02:08:48.604Z,100.00
2023-04-16T02:11:52.626Z,100.00
2023-04-16T02:14:55.807Z,100.00
2023-04-16T02:17:59.838Z,100.00
2023-04-16T02:21:03.407Z,100.00
2023-04-16T02:24:06.891Z,100.00
2023-04-16T02:27:11.290Z,100.00
2023-04-16T02:30:14.908Z,100.00
2023-04-16T02:33:18.428Z,100.00
2023-04-16T02:36:22.630Z,100.00
2023-04-16T02:39:26.160Z,100.00
2023-04-16T02:42:29.984Z,100.00
2023-04-16T02:45:35.415Z,100.00
2023-04-16T02:48:38.577Z,100.00
2023-04-16T02:51:42.788Z,100.00
2023-04-16T02:54:45.965Z,100.00
2023-04-16T02:57:49.393Z,100.00
2023-04-16T03:00:53.834Z,100.00
2023-04-16T03:03:57.547Z,100.00
2023-04-16T03:07:01.167Z,100.00
2023-04-16T03:10:07.284Z,100.00
2023-04-16T03:13:10.496Z,100.00
2023-04-16T03:16:14.093Z,100.00
2023-04-16T03:19:17.506Z,100.00
2023-04-16T03:22:21.369Z,100.00
2023-04-16T03:25:24.560Z,100.00
2023-04-16T03:28:28.282Z,100.00
2023-04-16T03:31:31.639Z,100.00
2023-04-16T03:34:36.870Z,100.00
2023-04-16T03:37:40.291Z,100.00
2023-04-16T03:40:43.836Z,100.00
2023-04-16T03:43:47.360Z,100.00
2023-04-16T03:46:52.654Z,100.00
2023-04-16T03:49:56.470Z,100.00
2023-04-16T03:53:00.146Z,100.00
2023-04-16T03:56:03.690Z,100.00
2023-04-16T03:59:07.931Z,100.00
2023-04-16T04:02:11.817Z,100.00
2023-04-16T04:05:15.576Z,100.00
2023-04-16T04:08:20.107Z,100.00
2023-04-16T04:11:23.788Z,100.00
2023-04-16T04:14:29.024Z,100.00
2023-04-16T04:17:32.498Z,100.00
2023-04-16T04:20:40.254Z,100.00
2023-04-16T04:23:43.990Z,100.00
2023-04-16T04:26:47.463Z,100.00
2023-04-16T04:29:50.784Z,100.00
2023-04-16T04:32:54.073Z,100.00
2023-04-16T04:35:57.652Z,100.00
2023-04-16T04:39:02.008Z,100.00
2023-04-16T04:42:07.198Z,100.00
2023-04-16T04:45:11.194Z,100.00
2023-04-16T04:48:15.696Z,100.00
2023-04-16T04:51:20.035Z,100.00
2023-04-16T04:54:23.521Z,100.00
2023-04-16T04:57:26.677Z,100.00
2023-04-16T05:00:30.813Z,100.00
2023-04-16T05:03:34.110Z,100.00
2023-04-16T05:06:37.638Z,100.00
2023-04-16T05:09:40.651Z,100.00
2023-04-16T05:12:43.972Z,100.00
2023-04-16T05:15:47.121Z,100.00
2023-04-16T05:18:50.750Z,100.00
2023-04-16T05:21:54.690Z,100.00
2023-04-16T05:24:58.062Z,100.00
2023-04-16T05:28:01.284Z,100.00
2023-04-16T05:31:07.443Z,100.00
2023-04-16T05:34:11.783Z,100.00
2023-04-16T05:37:15.172Z,100.00
2023-04-16T05:40:19.599Z,100.00
2023-04-16T05:43:25.027Z,100.00
2023-04-16T05:46:28.069Z,100.00
2023-04-16T05:49:31.757Z,100.00
2023-04-16T05:52:35.362Z,100.00
2023-04-16T05:55:38.696Z,100.00
2023-04-16T05:58:41.939Z,100.00
2023-04-16T06:01:45.849Z,100.00
2023-04-16T06:04:50.033Z,100.00
2023-04-16T06:07:53.348Z,100.00
2023-04-16T06:10:56.818Z,100.00
2023-04-16T06:13:59.926Z,100.00
2023-04-16T06:17:03.250Z,100.00
2023-04-16T06:20:06.784Z,100.00
2023-04-16T06:23:11.426Z,100.00
2023-04-16T06:26:14.326Z,100.00
2023-04-16T06:29:18.877Z,100.00
2023-04-16T06:32:23.055Z,100.00
2023-04-16T06:35:27.047Z,100.00
2023-04-16T06:38:31.104Z,100.00
2023-04-16T06:41:34.728Z,100.00
2023-04-16T06:44:37.957Z,100.00
2023-04-16T06:47:41.601Z,100.00
2023-04-16T06:50:44.835Z,100.00
2023-04-16T06:53:49.363Z,100.00
2023-04-16T06:56:52.678Z,100.00
2023-04-16T06:59:56.437Z,100.00
2023-04-16T07:03:01.581Z,100.00
2023-04-16T07:06:05.232Z,100.00
2023-04-16T07:09:09.129Z,100.00
2023-04-16T07:12:13.498Z,100.00
2023-04-16T07:15:16.788Z,100.00
2023-04-16T07:18:21.850Z,100.00
2023-04-16T07:21:26.943Z,100.00
2023-04-16T07:24:30.797Z,100.00
2023-04-16T07:27:34.325Z,100.00
2023-04-16T07:30:37.858Z,100.00
2023-04-16T07:33:41.098Z,100.00
2023-04-16T07:36:44.790Z,100.00
2023-04-16T07:39:48.146Z,100.00
2023-04-16T07:42:51.761Z,100.00
2023-04-16T07:45:55.477Z,100.00
2023-04-16T07:48:59.158Z,100.00
2023-04-16T07:52:02.429Z,100.00
2023-04-16T07:55:06.408Z,100.00
2023-04-16T07:58:09.748Z,100.00
2023-04-16T08:01:14.114Z,100.00
2023-04-16T08:04:23.306Z,100.00
2023-04-16T08:07:26.783Z,100.00
2023-04-16T08:10:30.201Z,100.00
2023-04-16T08:13:33.676Z,97.08
2023-04-16T08:16:38.959Z,97.00
2023-04-16T08:19:47.305Z,94.24
2023-04-16T08:22:51.287Z,95.35
2023-04-16T08:25:54.933Z,93.04
2023-04-16T08:28:59.903Z,88.96
2023-04-16T08:32:02.997Z,93.55
2023-04-16T08:35:07.852Z,90.41
2023-04-16T08:38:11.036Z,91.50
2023-04-16T08:41:15.138Z,88.35
2023-04-16T08:44:28.676Z,87.74
2023-04-16T08:47:35.945Z,91.00
2023-04-16T08:50:41.227Z,88.70
2023-04-16T08:53:59.138Z,90.94
2023-04-16T08:57:05.966Z,85.28
2023-04-16T09:00:10.162Z,82.83
2023-04-16T09:03:13.525Z,83.36
2023-04-16T09:06:18.477Z,84.67
2023-04-16T09:09:22.732Z,83.20
2023-04-16T09:12:26.582Z,82.23
2023-04-16T09:15:29.772Z,84.70
2023-04-16T09:18:33.322Z,78.96
2023-04-16T09:21:37.286Z,80.29
2023-04-16T09:24:42.113Z,79.45
2023-04-16T09:27:46.911Z,78.45
2023-04-16T09:30:50.781Z,77.82
2023-04-16T09:34:03.928Z,75.85
2023-04-16T09:37:19.849Z,78.03
2023-04-16T09:40:27.730Z,77.18
2023-04-16T09:43:32.220Z,76.86
2023-04-16T09:46:40.950Z,76.84
2023-04-16T09:49:45.107Z,75.75
2023-04-16T09:52:52.927Z,74.92
2023-04-16T09:56:00.868Z,76.79
2023-04-16T09:59:04.092Z,73.42
2023-04-16T10:02:14.589Z,74.93
2023-04-16T10:05:20.422Z,73.95
2023-04-16T10:08:24.335Z,74.39
2023-04-16T10:11:28.361Z,75.64
2023-04-16T10:14:31.545Z,73.66
2023-04-16T10:17:36.030Z,74.47
2023-04-16T10:20:39.488Z,75.13
2023-04-16T10:23:44.048Z,72.13
2023-04-16T10:26:48.588Z,68.75
2023-04-16T10:29:52.115Z,70.18
2023-04-16T10:32:59.661Z,67.71
2023-04-16T10:36:14.477Z,70.59
2023-04-16T10:39:22.526Z,69.04
2023-04-16T10:42:27.626Z,65.76
2023-04-16T10:45:32.713Z,69.25
2023-04-16T10:48:48.758Z,68.25
2023-04-16T10:52:02.485Z,71.12
2023-04-16T10:55:06.605Z,70.36
2023-04-16T10:58:34.953Z,71.10
2023-04-16T11:01:43.924Z,69.33
2023-04-16T11:04:49.858Z,70.18
2023-04-16T11:07:53.756Z,69.57
2023-04-16T11:10:58.791Z,69.78
2023-04-16T11:14:04.967Z,67.59
2023-04-16T11:17:08.781Z,67.71
2023-04-16T11:20:19.902Z,66.70
2023-04-16T11:23:23.926Z,66.20
2023-04-16T11:26:30.977Z,62.96
2023-04-16T11:29:34.419Z,66.91
2023-04-16T11:32:39.063Z,65.28
2023-04-16T11:35:43.534Z,64.54
2023-04-16T11:38:47.633Z,65.97
2023-04-16T11:41:52.646Z,65.87
2023-04-16T11:45:00.547Z,66.06
2023-04-16T11:48:03.700Z,58.32
2023-04-16T11:51:08.609Z,61.33
2023-04-16T11:54:22.691Z,61.44
2023-04-16T11:57:26.930Z,58.62
2023-04-16T12:00:36.064Z,56.89
2023-04-16T12:03:46.528Z,57.60
2023-04-16T12:07:12.339Z,57.30
2023-04-16T12:10:15.795Z,58.70
2023-04-16T12:13:19.826Z,56.56
2023-04-16T12:16:26.333Z,57.66
2023-04-16T12:19:29.791Z,57.24
2023-04-16T12:22:39.282Z,56.98
2023-04-16T12:25:43.428Z,56.70
2023-04-16T12:28:47.091Z,57.11
2023-04-16T12:31:52.135Z,57.19
2023-04-16T12:34:55.781Z,58.09
2023-04-16T12:37:59.850Z,57.33
2023-04-16T12:41:06.541Z,56.84
2023-04-16T12:44:18.034Z,55.77
2023-04-16T12:47:21.661Z,58.52
2023-04-16T12:50:26.263Z,59.99
2023-04-16T12:53:29.883Z,61.04
2023-04-16T12:56:33.957Z,58.33
2023-04-16T12:59:38.246Z,58.14
2023-04-16T13:02:41.695Z,59.93
2023-04-16T13:05:45.644Z,60.30
2023-04-16T13:08:48.748Z,57.42
2023-04-16T13:11:52.802Z,54.26
2023-04-16T13:14:56.096Z,59.96
2023-04-16T13:17:59.788Z,54.66
2023-04-16T13:21:03.315Z,55.21
2023-04-16T13:24:07.195Z,56.34
2023-04-16T13:27:12.889Z,54.57
2023-04-16T13:30:17.050Z,50.43
2023-04-16T13:33:21.584Z,49.07
2023-04-16T13:36:27.412Z,45.16
2023-04-16T13:39:30.878Z,44.69
2023-04-16T13:42:36.558Z,42.93
2023-04-16T13:45:40.453Z,45.93
2023-04-16T13:48:43.940Z,43.76
2023-04-16T13:51:47.664Z,43.40
2023-04-16T13:54:51.148Z,43.92
2023-04-16T13:57:56.496Z,45.20
2023-04-16T14:01:00.561Z,45.37
2023-04-16T14:04:06.825Z,46.09
2023-04-16T14:07:11.285Z,45.09
2023-04-16T14:10:14.694Z,43.14
2023-04-16T14:13:17.643Z,42.30
2023-04-16T14:16:21.115Z,42.27
2023-04-16T14:19:24.409Z,42.57
2023-04-16T14:22:27.707Z,44.21
2023-04-16T14:25:31.066Z,42.74
2023-04-16T14:28:35.820Z,45.80
2023-04-16T14:31:39.167Z,48.26
2023-04-16T14:34:45.045Z,48.75
2023-04-16T14:37:48.580Z,50.35
2023-04-16T14:40:52.814Z,51.42
2023-04-16T14:43:56.009Z,51.32
2023-04-16T14:46:59.409Z,50.26
2023-04-16T14:50:04.506Z,52.17
2023-04-16T14:53:09.118Z,53.16
2023-04-16T14:56:14.377Z,52.10
2023-04-16T14:59:17.829Z,54.17
2023-04-16T15:02:22.013Z,53.54
2023-04-16T15:05:27.516Z,54.38
2023-04-16T15:08:31.969Z,52.77
2023-04-16T15:11:35.918Z,51.33
2023-04-16T15:14:39.022Z,52.70
2023-04-16T15:17:43.464Z,49.74
2023-04-16T15:20:47.084Z,49.13
2023-04-16T15:23:50.896Z,49.79
2023-04-16T15:26:56.846Z,49.56
2023-04-16T15:30:01.256Z,49.95
2023-04-16T15:33:04.961Z,51.54
2023-04-16T15:36:09.490Z,52.05
2023-04-16T15:39:14.480Z,53.19
2023-04-16T15:42:19.155Z,53.82
2023-04-16T15:45:23.089Z,54.50
2023-04-16T15:48:26.914Z,54.46
2023-04-16T15:51:32.195Z,56.42
2023-04-16T15:54:36.267Z,54.85
2023-04-16T15:57:40.084Z,54.84
2023-04-16T16:00:46.852Z,53.99
2023-04-16T16:03:52.075Z,53.79
2023-04-16T16:06:57.089Z,54.61
2023-04-16T16:10:01.385Z,54.06
2023-04-16T16:13:08.330Z,54.44
2023-04-16T16:16:12.168Z,54.52
2023-04-16T16:19:16.783Z,56.45
2023-04-16T16:22:23.982Z,56.85
2023-04-16T16:25:28.221Z,57.86
2023-04-16T16:28:33.347Z,57.33
2023-04-16T16:31:36.818Z,58.06
2023-04-16T16:34:40.751Z,58.63
2023-04-16T16:37:45.539Z,59.88
2023-04-16T16:40:49.911Z,59.52
2023-04-16T16:44:00.280Z,58.65
2023-04-16T16:47:07.341Z,57.63
2023-04-16T16:50:12.441Z,59.10
2023-04-16T16:53:18.594Z,60.64
2023-04-16T16:56:23.125Z,60.74
2023-04-16T16:59:29.711Z,59.85
2023-04-16T17:02:35.086Z,59.63
2023-04-16T17:05:40.915Z,59.76
2023-04-16T17:08:46.421Z,59.42
2023-04-16T17:11:51.639Z,58.51
2023-04-16T17:14:57.206Z,59.04
2023-04-16T17:18:01.567Z,59.33
2023-04-16T17:21:04.921Z,61.12
2023-04-16T17:24:12.774Z,60.83
2023-04-16T17:27:16.783Z,60.43
2023-04-16T17:30:25.363Z,61.62
2023-04-16T17:33:29.299Z,61.45
2023-04-16T17:36:34.082Z,60.59
2023-04-16T17:39:39.116Z,61.24
2023-04-16T17:42:45.854Z,61.62
2023-04-16T17:45:51.460Z,61.66
2023-04-16T17:48:56.772Z,62.02
2023-04-16T17:52:01.946Z,63.55
2023-04-16T17:55:09.899Z,64.78
2023-04-16T17:58:13.922Z,66.03
2023-04-16T18:01:18.736Z,66.16
2023-04-16T18:04:30.486Z,66.51
2023-04-16T18:07:36.188Z,66.75
2023-04-16T18:10:42.864Z,67.78
2023-04-16T18:13:47.164Z,68.57
2023-04-16T18:16:51.235Z,69.67
2023-04-16T18:19:56.720Z,69.86
2023-04-16T18:23:03.542Z,69.61
2023-04-16T18:26:08.432Z,68.68
2023-04-16T18:29:14.848Z,69.24
2023-04-16T18:32:21.206Z,68.97
2023-04-16T18:35:25.686Z,70.57
2023-04-16T18:38:32.861Z,70.01
2023-04-16T18:41:37.355Z,70.31
2023-04-16T18:44:40.961Z,69.63
2023-04-16T18:47:45.676Z,69.68
2023-04-16T18:50:49.714Z,70.34
2023-04-16T18:53:54.315Z,71.10
2023-04-16T18:57:02.981Z,71.67
2023-04-16T19:00:14.349Z,72.10
2023-04-16T19:03:20.441Z,72.22
2023-04-16T19:06:25.189Z,71.42
2023-04-16T19:09:28.998Z,71.79
2023-04-16T19:12:33.309Z,71.39
2023-04-16T19:15:37.488Z,71.01
2023-04-16T19:18:43.680Z,70.41
2023-04-16T19:21:49.542Z,69.54
2023-04-16T19:25:01.492Z,70.75
2023-04-16T19:28:07.954Z,70.23
2023-04-16T19:31:12.225Z,70.19
2023-04-16T19:34:18.108Z,70.75
2023-04-16T19:37:22.097Z,69.46
2023-04-16T19:40:26.333Z,70.24
2023-04-16T19:43:31.111Z,69.50
2023-04-16T19:46:35.331Z,67.55
2023-04-16T19:49:39.105Z,68.39
2023-04-16T19:52:44.024Z,67.93
2023-04-16T19:55:50.199Z,68.15
2023-04-16T19:59:02.670Z,68.16
2023-04-16T20:02:10.262Z,68.03
2023-04-16T20:05:14.610Z,66.94
2023-04-16T20:08:18.844Z,67.82
2023-04-16T20:11:22.816Z,68.45
2023-04-16T20:14:26.602Z,69.48
2023-04-16T20:17:32.710Z,69.55
2023-04-16T20:20:38.441Z,69.42
2023-04-16T20:23:43.094Z,69.54
2023-04-16T20:26:46.799Z,69.83
2023-04-16T20:29:52.146Z,68.86
2023-04-16T20:32:58.299Z,70.53
2023-04-16T20:36:07.757Z,69.58
2023-04-16T20:39:11.774Z,69.65
2023-04-16T20:42:15.505Z,69.55
2023-04-16T20:45:19.746Z,69.19
2023-04-16T20:48:25.197Z,70.72
2023-04-16T20:51:28.860Z,70.57
2023-04-16T20:54:33.425Z,71.15
2023-04-16T20:57:38.364Z,72.20
2023-04-16T21:00:41.970Z,71.78
2023-04-16T21:03:45.476Z,72.49
2023-04-16T21:06:49.314Z,72.90
2023-04-16T21:09:52.851Z,72.22
2023-04-16T21:12:56.401Z,71.23
2023-04-16T21:15:59.508Z,71.53
2023-04-16T21:19:03.832Z,71.53
2023-04-16T21:22:06.986Z,71.80
2023-04-16T21:25:10.371Z,71.34
2023-04-16T21:28:13.452Z,71.91
2023-04-16T21:31:18.302Z,73.29
2023-04-16T21:34:21.481Z,72.51
2023-04-16T21:37:25.002Z,71.21
2023-04-16T21:40:28.261Z,71.38
2023-04-16T21:43:35.505Z,70.83
2023-04-16T21:46:38.595Z,71.58
2023-04-16T21:49:43.318Z,71.45
2023-04-16T21:52:52.656Z,70.51
2023-04-16T21:55:56.211Z,71.40
2023-04-16T21:58:59.919Z,71.99
2023-04-16T22:02:03.843Z,72.05
2023-04-16T22:05:08.332Z,72.59
2023-04-16T22:11:20.907Z,72.23
2023-04-16T22:14:24.884Z,71.24
2023-04-16T22:17:28.361Z,69.47
2023-04-16T22:20:38.851Z,69.69
2023-04-16T22:23:42.349Z,67.85
2023-04-16T22:26:45.499Z,67.92
2023-04-16T22:29:49.280Z,68.86
2023-04-16T22:32:52.420Z,68.52
2023-04-16T22:35:56.091Z,69.98
2023-04-16T22:38:59.357Z,68.65
2023-04-16T22:42:02.876Z,69.12
2023-04-16T22:45:07.454Z,69.47
2023-04-16T22:48:11.166Z,68.98
2023-04-16T22:51:14.193Z,68.53
2023-04-16T22:54:17.622Z,69.45
2023-04-16T22:57:25.740Z,68.23
2023-04-16T23:00:29.775Z,68.08
2023-04-16T23:03:33.005Z,69.15
2023-04-16T23:06:37.189Z,68.56
2023-04-16T23:09:40.543Z,68.24
2023-04-16T23:12:44.865Z,68.96
2023-04-16T23:15:48.070Z,70.25
2023-04-16T23:18:51.359Z,69.64
2023-04-16T23:21:54.349Z,69.08
2023-04-16T23:24:57.840Z,69.74
2023-04-16T23:28:00.877Z,68.49
2023-04-16T23:31:07.130Z,68.57
2023-04-16T23:34:10.768Z,68.95
2023-04-16T23:37:14.327Z,68.09
2023-04-16T23:40:17.743Z,68.16
2023-04-16T23:43:21.676Z,67.59
2023-04-16T23:46:24.905Z,68.04
2023-04-16T23:49:28.841Z,65.53
2023-04-16T23:52:32.348Z,66.50
2023-04-16T23:55:36.327Z,66.21
2023-04-16T23:58:39.394Z,66.12
